Etusivu
METAR-TAF:

METAR-TAF

Lentoasemat :

Hanamaki, Japani

Leveyspiiri: 39-26N, Pituuspiiri: 141-08E, korkeus merenpinnasta: 90 m

Tämänhetkinen sää

Tämä raportti tehtiin 39 minuuttia sitten, kello 00.00 UTC
Tuuli 4 kn etelästä, vaihdellen kaakon ja etelän/lounaan välillä
Lämpötila 8°C
Kosteus 76%
Ilmanpaine 1008 hPa
Näkyvyys 10 km tai enemmän
Muutamia pilviä 1000 ft:n korkeudessa
Hajonneita pilviä 2000 ft:n korkeudessa
Hajonneita pilviä 3000 ft:n korkeudessa
heikkoja vesikuuroja

METAR: RJSI 260000Z 17004KT 140V200 9999 -SHRA FEW010 BKN020 BKN030 08/04 Q1008

Aika: 09:39 (00:39 UTC)


TAF: puuttuu

Säähavainnot ja -ennusteet yli 4000 lentoasemalta (METAR- ja TAF-raportit).

Käytössä olevat sääasemat on merkitty karttaan keltaisilla ja punaisilla pisteillä.

Aseta hiiri pisteen päälle nähdäksesi sääaseman nimen.

Klikkaa sitten nähdäksesi säähavainnot ja -ennusteet.

Kartan vaihtaminen: klikkaa mustalla rastilla varustettuja vihreitä pisteitä, niin voit zoomata sisään; viivalla varustettua vihreää pistettä, niin voit zoomata ulos tai vihreitä nuolia, niin pääset viereisille kartoille.


METAR-TAF: